Time;durP1;ratioP1;P1;durP2;ratioP2;P2;SDS_P1;SDS_P2;PMS_P1;PMS_P2;Temp;Humidity;BMP_temperature;BMP_pressure;BME280_temperature;BME280_humidity;BME280_pressure;Samples;Min_cycle;Max_cycle;Signal;HPM_P1;HPM_P2
2022/11/28 00:01:25;;;;;;;8.37;6.83;;;;;;;;;;6311403;22;20267;-70
2022/11/28 00:03:51;;;;;;;11.23;7.27;;;;;;;;;;6283211;22;20167;-69
2022/11/28 00:06:17;;;;;;;11.97;7.60;;;;;;;;;;6311764;22;20164;-71
2022/11/28 00:08:43;;;;;;;9.57;7.30;;;;;;;;;;6311768;22;20688;-69
2022/11/28 00:11:12;;;;;;;8.90;7.10;;;;;;;;;;6311228;22;20206;-69
2022/11/28 00:13:38;;;;;;;11.07;7.33;;;;;;;;;;6283866;22;20256;-70
2022/11/28 00:16:05;;;;;;;8.70;7.47;;;;;;;;;;6310707;22;20172;-69
2022/11/28 00:18:31;;;;;;;9.33;5.87;;;;;;;;;;6311459;22;20180;-70
2022/11/28 00:21:04;;;;;;;13.97;7.87;;;;;;;;;;6311733;22;20149;-70
2022/11/28 00:23:31;;;;;;;8.27;7.00;;;;;;;;;;6311519;22;20141;-69
2022/11/28 00:25:58;;;;;;;9.57;7.30;;;;;;;;;;6285629;22;20156;-70
2022/11/28 00:28:24;;;;;;;10.23;6.63;;;;;;;;;;6314277;22;20191;-70
2022/11/28 00:30:50;;;;;;;9.40;7.37;;;;;;;;;;6328247;22;20152;-69
2022/11/28 00:33:16;;;;;;;9.13;7.63;;;;;;;;;;6328835;22;20206;-70
2022/11/28 00:35:42;;;;;;;8.83;6.93;;;;;;;;;;6299518;22;20148;-69
2022/11/28 00:38:08;;;;;;;7.60;6.50;;;;;;;;;;6314080;22;20214;-69
2022/11/28 00:40:34;;;;;;;9.70;6.80;;;;;;;;;;6310323;22;20487;-69
2022/11/28 00:43:00;;;;;;;9.10;7.60;;;;;;;;;;6282917;22;20474;-69
2022/11/28 00:45:26;;;;;;;10.47;6.67;;;;;;;;;;6282592;22;20156;-68
2022/11/28 00:47:52;;;;;;;7.87;6.33;;;;;;;;;;6282275;22;20180;-68
2022/11/28 00:50:18;;;;;;;9.30;7.07;;;;;;;;;;6309658;22;20188;-69
2022/11/28 00:52:44;;;;;;;8.67;6.23;;;;;;;;;;6309561;22;20570;-69
2022/11/28 00:55:10;;;;;;;9.27;6.40;;;;;;;;;;6282241;22;20154;-70
2022/11/28 00:57:36;;;;;;;7.30;6.60;;;;;;;;;;6282157;22;20180;-69
2022/11/28 01:00:02;;;;;;;8.07;6.17;;;;;;;;;;6282167;22;20235;-69
2022/11/28 01:02:27;;;;;;;8.20;6.07;;;;;;;;;;6309390;22;20594;-69
2022/11/28 01:04:53;;;;;;;7.90;6.40;;;;;;;;;;6309743;22;20229;-71
2022/11/28 01:07:19;;;;;;;8.57;6.53;;;;;;;;;;6282678;22;20153;-70
2022/11/28 01:09:45;;;;;;;8.77;6.93;;;;;;;;;;6309304;22;20168;-69
2022/11/28 01:12:11;;;;;;;8.97;6.63;;;;;;;;;;6309673;22;20152;-70
2022/11/28 01:14:37;;;;;;;10.33;6.37;;;;;;;;;;6309652;22;20232;-70
2022/11/28 01:17:03;;;;;;;7.63;5.83;;;;;;;;;;6310223;22;20156;-69
2022/11/28 01:19:29;;;;;;;7.93;6.97;;;;;;;;;;6309800;22;20171;-71
2022/11/28 01:21:55;;;;;;;8.00;6.80;;;;;;;;;;6312637;22;20204;-70
2022/11/28 01:24:21;;;;;;;9.03;5.83;;;;;;;;;;6312513;22;20156;-70
2022/11/28 01:26:47;;;;;;;7.53;6.50;;;;;;;;;;6308906;22;20175;-70
2022/11/28 01:29:13;;;;;;;7.70;6.30;;;;;;;;;;6281752;22;20156;-70
2022/11/28 01:31:39;;;;;;;8.37;6.63;;;;;;;;;;6281198;22;20180;-69
2022/11/28 01:34:05;;;;;;;6.97;5.70;;;;;;;;;;6308633;22;20255;-70
2022/11/28 01:36:31;;;;;;;10.27;6.87;;;;;;;;;;6311856;22;20151;-69
2022/11/28 01:38:57;;;;;;;9.67;6.73;;;;;;;;;;6309096;22;20149;-70
2022/11/28 01:41:25;;;;;;;13.70;6.90;;;;;;;;;;6308573;22;20199;-70
2022/11/28 01:44:02;;;;;;;10.90;6.33;;;;;;;;;;6281149;22;20194;-70
2022/11/28 01:46:28;;;;;;;9.53;6.70;;;;;;;;;;6309230;22;20152;-69
2022/11/28 01:48:56;;;;;;;9.30;6.90;;;;;;;;;;6281201;22;20161;-70
2022/11/28 01:51:22;;;;;;;7.53;6.73;;;;;;;;;;6308815;22;20171;-70
2022/11/28 01:53:48;;;;;;;8.23;6.73;;;;;;;;;;6308296;22;20192;-69
2022/11/28 01:56:19;;;;;;;8.70;6.67;;;;;;;;;;6309033;22;20228;-70
2022/11/28 01:58:47;;;;;;;10.10;7.67;;;;;;;;;;6308793;22;20140;-70
2022/11/28 02:01:13;;;;;;;9.10;6.57;;;;;;;;;;6308190;22;20168;-70
2022/11/28 02:03:42;;;;;;;7.83;6.33;;;;;;;;;;6280860;22;20598;-70
2022/11/28 02:06:09;;;;;;;10.00;6.43;;;;;;;;;;6308431;22;20148;-70
2022/11/28 02:08:36;;;;;;;10.00;7.93;;;;;;;;;;6308180;22;20625;-70
2022/11/28 02:11:11;;;;;;;8.07;6.37;;;;;;;;;;6312457;22;20649;-69
2022/11/28 02:13:44;;;;;;;11.17;6.50;;;;;;;;;;6289979;22;20172;-69
2022/11/28 02:16:23;;;;;;;10.73;6.43;;;;;;;;;;6317657;22;20137;-70
2022/11/28 02:18:52;;;;;;;7.73;6.30;;;;;;;;;;6288084;22;20201;-70
2022/11/28 02:21:21;;;;;;;9.10;6.37;;;;;;;;;;6309313;22;20691;-70
2022/11/28 02:24:06;;;;;;;8.33;6.53;;;;;;;;;;6308937;22;20149;-70
2022/11/28 02:26:39;;;;;;;9.37;7.47;;;;;;;;;;6283930;22;20206;-69
2022/11/28 02:29:11;;;;;;;10.43;7.53;;;;;;;;;;6309127;22;20140;-71
2022/11/28 02:31:56;;;;;;;21.17;10.10;;;;;;;;;;6308121;22;20168;-69
2022/11/28 02:34:35;;;;;;;17.63;10.17;;;;;;;;;;6307877;22;20175;-69
2022/11/28 02:37:12;;;;;;;22.70;13.27;;;;;;;;;;6280669;22;20159;-69
2022/11/28 02:39:45;;;;;;;21.03;12.03;;;;;;;;;;6280245;22;20148;-69
2022/11/28 02:42:21;;;;;;;20.27;13.87;;;;;;;;;;6307744;22;20206;-70
2022/11/28 02:44:54;;;;;;;23.27;13.50;;;;;;;;;;6307830;22;20152;-69
2022/11/28 02:47:24;;;;;;;24.23;15.03;;;;;;;;;;6307805;22;20219;-70
2022/11/28 02:49:57;;;;;;;23.13;14.33;;;;;;;;;;6308697;22;20187;-69
2022/11/28 02:52:25;;;;;;;16.83;12.93;;;;;;;;;;6307872;22;20172;-69
2022/11/28 02:54:51;;;;;;;16.37;10.67;;;;;;;;;;6307767;22;20183;-70
2022/11/28 02:57:17;;;;;;;16.10;10.60;;;;;;;;;;6280568;22;20209;-70
2022/11/28 02:59:47;;;;;;;11.93;9.97;;;;;;;;;;6308214;22;20152;-69
2022/11/28 03:02:19;;;;;;;12.10;9.33;;;;;;;;;;6307696;22;20196;-70
2022/11/28 03:04:51;;;;;;;12.33;9.37;;;;;;;;;;6280467;22;20168;-69
2022/11/28 03:07:29;;;;;;;12.70;9.07;;;;;;;;;;6280325;22;20162;-69
2022/11/28 03:09:58;;;;;;;11.60;9.53;;;;;;;;;;6308090;22;20151;-69
2022/11/28 03:12:29;;;;;;;11.17;8.63;;;;;;;;;;6280132;22;20180;-70
2022/11/28 03:14:55;;;;;;;17.07;10.53;;;;;;;;;;6307644;22;20137;-69
2022/11/28 03:17:34;;;;;;;11.73;9.60;;;;;;;;;;6308596;22;20194;-70
2022/11/28 03:20:16;;;;;;;12.80;10.47;;;;;;;;;;6308267;22;20152;-70
2022/11/28 03:22:55;;;;;;;14.60;10.23;;;;;;;;;;6280342;22;20247;-70
2022/11/28 03:25:26;;;;;;;13.73;10.83;;;;;;;;;;6308134;22;20141;-69
2022/11/28 03:28:05;;;;;;;14.70;10.67;;;;;;;;;;6280192;22;20160;-70
2022/11/28 03:30:34;;;;;;;15.33;10.80;;;;;;;;;;6307869;22;20594;-69
2022/11/28 03:33:01;;;;;;;13.63;10.87;;;;;;;;;;6307935;22;20173;-69
2022/11/28 03:35:32;;;;;;;13.40;10.87;;;;;;;;;;6280238;22;20152;-69
2022/11/28 03:38:01;;;;;;;15.17;10.83;;;;;;;;;;6308386;22;20133;-69
2022/11/28 03:40:32;;;;;;;12.27;10.70;;;;;;;;;;6307868;22;20145;-69
2022/11/28 03:43:03;;;;;;;13.83;11.07;;;;;;;;;;6307610;22;20164;-70
2022/11/28 03:45:31;;;;;;;13.43;11.40;;;;;;;;;;6280370;22;20153;-69
2022/11/28 03:48:02;;;;;;;14.97;11.33;;;;;;;;;;6280213;22;20159;-69
2022/11/28 03:50:33;;;;;;;13.83;11.53;;;;;;;;;;6281048;22;20167;-69
2022/11/28 03:53:02;;;;;;;16.10;10.33;;;;;;;;;;6310243;22;20613;-69
2022/11/28 03:55:48;;;;;;;16.63;11.80;;;;;;;;;;6282021;22;20180;-70
2022/11/28 03:58:16;;;;;;;15.77;10.97;;;;;;;;;;6310223;22;20133;-70
2022/11/28 04:00:49;;;;;;;14.93;11.17;;;;;;;;;;6309821;22;20614;-69
2022/11/28 04:03:15;;;;;;;14.43;11.83;;;;;;;;;;6309595;22;20202;-70
2022/11/28 04:05:44;;;;;;;20.53;12.37;;;;;;;;;;6309463;22;20152;-71
2022/11/28 04:08:16;;;;;;;17.90;12.30;;;;;;;;;;6283086;22;20161;-69
2022/11/28 04:10:42;;;;;;;16.80;13.17;;;;;;;;;;6282681;22;20583;-69
2022/11/28 04:13:17;;;;;;;16.03;11.80;;;;;;;;;;6309311;22;20199;-70
2022/11/28 04:15:53;;;;;;;23.17;15.13;;;;;;;;;;6282209;22;20193;-69
2022/11/28 04:18:21;;;;;;;19.90;14.10;;;;;;;;;;6281915;22;20499;-70
2022/11/28 04:20:57;;;;;;;20.00;14.23;;;;;;;;;;6282018;22;20241;-70
2022/11/28 04:23:24;;;;;;;23.07;17.20;;;;;;;;;;6283132;22;20148;-66
2022/11/28 04:26:02;;;;;;;23.53;19.53;;;;;;;;;;6282680;22;20196;-68
2022/11/28 04:28:31;;;;;;;17.70;15.57;;;;;;;;;;6282403;22;20183;-68
2022/11/28 04:30:58;;;;;;;19.13;13.20;;;;;;;;;;6310957;22;20664;-68
2022/11/28 04:33:25;;;;;;;19.13;14.53;;;;;;;;;;6309040;22;20176;-68
2022/11/28 04:35:52;;;;;;;22.30;14.73;;;;;;;;;;6309899;22;20148;-68
2022/11/28 04:38:20;;;;;;;17.80;13.43;;;;;;;;;;6310326;22;20593;-68
2022/11/28 04:41:12;;;;;;;17.73;12.83;;;;;;;;;;6282545;22;20204;-68
2022/11/28 04:43:41;;;;;;;13.37;11.93;;;;;;;;;;6303985;22;20163;-68
2022/11/28 04:46:11;;;;;;;16.10;12.07;;;;;;;;;;6310151;22;20613;-69
2022/11/28 04:48:37;;;;;;;15.13;11.53;;;;;;;;;;6310223;22;20136;-70
2022/11/28 04:51:20;;;;;;;14.30;10.83;;;;;;;;;;6310572;22;20207;-68
2022/11/28 04:53:55;;;;;;;17.73;11.73;;;;;;;;;;6282527;22;20180;-69
2022/11/28 04:56:22;;;;;;;12.73;11.40;;;;;;;;;;6283574;22;20200;-69
2022/11/28 04:58:49;;;;;;;16.50;11.10;;;;;;;;;;6283686;22;20503;-68
2022/11/28 05:01:18;;;;;;;13.93;11.47;;;;;;;;;;6284043;22;20226;-69
2022/11/28 05:03:44;;;;;;;14.57;12.40;;;;;;;;;;6281995;22;20156;-69
2022/11/28 05:06:10;;;;;;;16.67;12.63;;;;;;;;;;6282100;22;20243;-69
2022/11/28 05:08:36;;;;;;;17.87;12.40;;;;;;;;;;6282401;22;20214;-69
2022/11/28 05:11:02;;;;;;;14.27;11.63;;;;;;;;;;6281956;22;20527;-69
2022/11/28 05:13:28;;;;;;;15.47;11.97;;;;;;;;;;6281359;22;20624;-69
2022/11/28 05:15:54;;;;;;;14.90;11.80;;;;;;;;;;6281839;22;20144;-68
2022/11/28 05:18:20;;;;;;;15.83;11.73;;;;;;;;;;6281719;22;20176;-69
2022/11/28 05:20:46;;;;;;;12.80;10.30;;;;;;;;;;6281413;22;20267;-69
2022/11/28 05:23:12;;;;;;;16.87;11.97;;;;;;;;;;6282837;22;20228;-69
2022/11/28 05:25:41;;;;;;;14.83;11.60;;;;;;;;;;6281772;22;20536;-69
2022/11/28 05:28:07;;;;;;;15.83;12.23;;;;;;;;;;6281819;22;20163;-69
2022/11/28 05:30:33;;;;;;;16.50;12.03;;;;;;;;;;6282011;22;20190;-69
2022/11/28 05:32:59;;;;;;;13.50;11.80;;;;;;;;;;6309279;22;20708;-68
2022/11/28 05:35:25;;;;;;;16.63;12.17;;;;;;;;;;6281937;22;20160;-68
2022/11/28 05:37:51;;;;;;;15.87;11.93;;;;;;;;;;6281779;22;20183;-69
2022/11/28 05:40:17;;;;;;;15.53;12.67;;;;;;;;;;6281709;22;20187;-68
2022/11/28 05:42:43;;;;;;;18.27;12.40;;;;;;;;;;6282523;22;20155;-68
2022/11/28 05:45:09;;;;;;;16.30;13.10;;;;;;;;;;6311575;22;20176;-68
2022/11/28 05:47:35;;;;;;;17.63;12.77;;;;;;;;;;6300773;22;20183;-69
2022/11/28 05:50:01;;;;;;;15.60;12.60;;;;;;;;;;6330369;22;20145;-69
2022/11/28 05:52:31;;;;;;;15.97;12.13;;;;;;;;;;6300961;22;20179;-69
2022/11/28 05:54:59;;;;;;;15.13;13.07;;;;;;;;;;6328099;22;20144;-68
2022/11/28 05:57:25;;;;;;;17.50;13.00;;;;;;;;;;6300286;22;20598;-70
2022/11/28 05:59:50;;;;;;;17.50;13.10;;;;;;;;;;6329653;22;20171;-71
2022/11/28 06:02:16;;;;;;;17.80;13.00;;;;;;;;;;6291022;22;20173;-69
2022/11/28 06:04:42;;;;;;;16.40;13.60;;;;;;;;;;6282616;22;20161;-69
2022/11/28 06:07:08;;;;;;;16.93;13.67;;;;;;;;;;6309214;22;20613;-69
2022/11/28 06:09:34;;;;;;;18.53;13.73;;;;;;;;;;6309936;22;20527;-70
2022/11/28 06:12:00;;;;;;;18.40;13.53;;;;;;;;;;6309765;22;20172;-69
2022/11/28 06:14:26;;;;;;;18.00;13.40;;;;;;;;;;6310164;22;20168;-69
2022/11/28 06:16:52;;;;;;;39.53;18.37;;;;;;;;;;6309852;22;20483;-68
2022/11/28 06:19:18;;;;;;;18.93;13.60;;;;;;;;;;6309070;22;20491;-69
2022/11/28 06:21:44;;;;;;;18.23;13.60;;;;;;;;;;6308690;22;20229;-69
2022/11/28 06:24:10;;;;;;;15.47;13.30;;;;;;;;;;6282360;22;20149;-69
2022/11/28 06:26:36;;;;;;;16.67;13.17;;;;;;;;;;6309455;22;20152;-67
2022/11/28 06:29:02;;;;;;;19.97;14.87;;;;;;;;;;6286363;22;20149;-68
2022/11/28 06:31:29;;;;;;;16.10;13.60;;;;;;;;;;6283584;22;20176;-67
2022/11/28 06:33:55;;;;;;;18.50;14.00;;;;;;;;;;6313479;22;20169;-68
2022/11/28 06:36:21;;;;;;;19.10;13.77;;;;;;;;;;6286886;22;20234;-68
2022/11/28 06:38:47;;;;;;;18.57;14.13;;;;;;;;;;6320793;22;20149;-68
2022/11/28 06:41:14;;;;;;;19.73;14.77;;;;;;;;;;6313433;22;20172;-68
2022/11/28 06:43:40;;;;;;;16.27;13.47;;;;;;;;;;6308516;22;20220;-68
2022/11/28 06:46:13;;;;;;;22.93;14.30;;;;;;;;;;6308400;22;20175;-68
2022/11/28 06:48:39;;;;;;;21.70;14.17;;;;;;;;;;6308277;22;20152;-68
2022/11/28 06:51:06;;;;;;;19.53;15.00;;;;;;;;;;6308498;22;20179;-68
2022/11/28 06:53:33;;;;;;;19.70;14.27;;;;;;;;;;6308567;22;20186;-68
2022/11/28 06:56:12;;;;;;;19.20;13.23;;;;;;;;;;6308108;22;20148;-70
2022/11/28 06:58:39;;;;;;;17.47;13.53;;;;;;;;;;6280881;22;20144;-68
2022/11/28 07:01:09;;;;;;;25.63;14.57;;;;;;;;;;6280526;22;20172;-69
2022/11/28 07:03:35;;;;;;;17.67;13.27;;;;;;;;;;6307919;22;20582;-69
2022/11/28 07:06:01;;;;;;;18.30;14.00;;;;;;;;;;6308295;22;20153;-69
2022/11/28 07:08:28;;;;;;;18.27;13.67;;;;;;;;;;6280847;22;20167;-69
2022/11/28 07:10:56;;;;;;;19.30;13.37;;;;;;;;;;6308219;22;20188;-69
2022/11/28 07:13:22;;;;;;;19.77;14.33;;;;;;;;;;6280636;22;20660;-69
2022/11/28 07:15:51;;;;;;;20.80;14.30;;;;;;;;;;6307818;22;20176;-70
2022/11/28 07:18:17;;;;;;;16.97;13.53;;;;;;;;;;6308044;22;20191;-69
2022/11/28 07:20:43;;;;;;;17.33;13.53;;;;;;;;;;6308390;22;20677;-69
2022/11/28 07:23:09;;;;;;;15.13;13.53;;;;;;;;;;6280535;22;20605;-69
2022/11/28 07:25:35;;;;;;;16.60;13.10;;;;;;;;;;6309989;22;20653;-69
2022/11/28 07:28:01;;;;;;;16.97;13.63;;;;;;;;;;6310804;22;20457;-69
2022/11/28 07:30:27;;;;;;;20.00;12.63;;;;;;;;;;6310175;22;20473;-69
2022/11/28 07:32:53;;;;;;;17.73;12.57;;;;;;;;;;6311376;22;20552;-69
2022/11/28 07:35:19;;;;;;;18.00;12.57;;;;;;;;;;6310211;22;20156;-69
2022/11/28 07:37:45;;;;;;;18.73;14.23;;;;;;;;;;6282652;22;20595;-69
2022/11/28 07:40:12;;;;;;;18.60;13.13;;;;;;;;;;6284412;22;20153;-69
2022/11/28 07:42:38;;;;;;;19.87;13.63;;;;;;;;;;6283611;22;20630;-69
2022/11/28 07:45:04;;;;;;;18.23;13.27;;;;;;;;;;6316561;22;20185;-69
2022/11/28 07:47:30;;;;;;;18.63;13.77;;;;;;;;;;6289806;22;20156;-69
2022/11/28 07:49:56;;;;;;;18.37;13.50;;;;;;;;;;6318239;22;20153;-69
2022/11/28 07:52:22;;;;;;;18.60;13.43;;;;;;;;;;6287485;22;20716;-69
2022/11/28 07:54:49;;;;;;;17.00;13.27;;;;;;;;;;6284158;22;20672;-69
2022/11/28 07:57:15;;;;;;;18.97;14.03;;;;;;;;;;6284146;22;20180;-69
2022/11/28 07:59:41;;;;;;;15.73;12.73;;;;;;;;;;6310138;22;20166;-69
2022/11/28 08:02:08;;;;;;;16.03;12.87;;;;;;;;;;6281955;22;20169;-69
2022/11/28 08:04:34;;;;;;;17.07;14.20;;;;;;;;;;6309953;22;20156;-69
2022/11/28 08:07:00;;;;;;;16.37;13.40;;;;;;;;;;6282269;22;20157;-69
2022/11/28 08:09:26;;;;;;;14.80;12.70;;;;;;;;;;6282606;22;20167;-69
2022/11/28 08:11:52;;;;;;;15.77;12.27;;;;;;;;;;6310715;22;20218;-76
2022/11/28 08:14:19;;;;;;;20.67;13.03;;;;;;;;;;6283818;22;20224;-75
2022/11/28 08:16:45;;;;;;;18.27;12.93;;;;;;;;;;6283706;22;20280;-75
2022/11/28 08:19:11;;;;;;;18.07;13.23;;;;;;;;;;6283169;22;20153;-76
2022/11/28 08:21:37;;;;;;;18.07;13.93;;;;;;;;;;6310708;22;20218;-75
2022/11/28 08:24:04;;;;;;;14.33;11.50;;;;;;;;;;6311035;22;20148;-74
2022/11/28 08:26:31;;;;;;;13.93;12.00;;;;;;;;;;6311375;22;20153;-75
2022/11/28 08:28:57;;;;;;;23.43;13.23;;;;;;;;;;6283277;22;20167;-75
2022/11/28 08:31:24;;;;;;;19.80;15.43;;;;;;;;;;6311417;22;20179;-75
2022/11/28 08:33:51;;;;;;;26.83;19.37;;;;;;;;;;6283800;22;20260;-75
2022/11/28 08:36:18;;;;;;;15.47;12.73;;;;;;;;;;6282659;22;20214;-74
2022/11/28 08:38:45;;;;;;;17.63;12.57;;;;;;;;;;6283850;22;20153;-75
2022/11/28 08:41:12;;;;;;;17.37;11.83;;;;;;;;;;6283055;22;20169;-75
2022/11/28 08:43:38;;;;;;;16.57;11.87;;;;;;;;;;6282700;22;20153;-74
2022/11/28 08:46:05;;;;;;;17.43;12.37;;;;;;;;;;6283175;22;20501;-75
2022/11/28 08:48:31;;;;;;;22.37;12.17;;;;;;;;;;6282775;22;20505;-75
2022/11/28 08:50:57;;;;;;;15.07;12.00;;;;;;;;;;6282978;22;20202;-75
2022/11/28 08:53:23;;;;;;;18.10;12.17;;;;;;;;;;6310543;22;20241;-76
2022/11/28 08:55:49;;;;;;;15.27;12.20;;;;;;;;;;6282881;22;20184;-76
2022/11/28 08:58:15;;;;;;;15.63;12.00;;;;;;;;;;6309998;22;20148;-75
2022/11/28 09:00:41;;;;;;;21.67;12.27;;;;;;;;;;6282993;22;20152;-74
2022/11/28 09:03:07;;;;;;;14.03;12.00;;;;;;;;;;6282763;22;20153;-74
2022/11/28 09:05:34;;;;;;;15.03;12.23;;;;;;;;;;6282811;22;20160;-75
2022/11/28 09:08:00;;;;;;;15.73;12.07;;;;;;;;;;6310253;22;20160;-74
2022/11/28 09:10:26;;;;;;;14.83;11.33;;;;;;;;;;6282918;22;20156;-75
2022/11/28 09:12:52;;;;;;;17.60;12.67;;;;;;;;;;6283311;22;20251;-76
2022/11/28 09:15:18;;;;;;;16.43;12.17;;;;;;;;;;6283585;22;20235;-74
2022/11/28 09:17:44;;;;;;;21.17;12.83;;;;;;;;;;6283016;22;20151;-73
2022/11/28 09:20:10;;;;;;;16.23;12.40;;;;;;;;;;6282963;22;20555;-76
2022/11/28 09:22:36;;;;;;;17.50;13.00;;;;;;;;;;6282836;22;20203;-76
2022/11/28 09:25:03;;;;;;;17.00;11.90;;;;;;;;;;6282376;22;20148;-75
2022/11/28 09:27:28;;;;;;;19.20;12.47;;;;;;;;;;6310047;22;20145;-76
2022/11/28 09:29:54;;;;;;;14.03;11.97;;;;;;;;;;6282491;22;20613;-76
2022/11/28 09:32:20;;;;;;;14.53;12.10;;;;;;;;;;6282143;22;20551;-75
2022/11/28 09:34:46;;;;;;;20.17;13.60;;;;;;;;;;6286375;22;20638;-72
2022/11/28 09:37:12;;;;;;;17.40;12.17;;;;;;;;;;6309725;22;20455;-71
2022/11/28 09:39:39;;;;;;;17.40;12.63;;;;;;;;;;6281921;22;20149;-70
2022/11/28 09:42:11;;;;;;;19.70;12.00;;;;;;;;;;6281733;22;20255;-72
2022/11/28 09:44:41;;;;;;;20.00;12.67;;;;;;;;;;6309568;22;20151;-73
2022/11/28 09:47:14;;;;;;;14.87;12.13;;;;;;;;;;6281808;22;20144;-72
2022/11/28 09:49:44;;;;;;;18.43;13.17;;;;;;;;;;6309331;22;20160;-71
2022/11/28 09:52:13;;;;;;;23.10;13.07;;;;;;;;;;6308999;22;20570;-73
2022/11/28 09:54:46;;;;;;;17.23;13.77;;;;;;;;;;6308956;22;20169;-70
2022/11/28 09:57:17;;;;;;;16.33;13.30;;;;;;;;;;6281502;22;20153;-72
2022/11/28 09:59:43;;;;;;;20.40;14.97;;;;;;;;;;6309296;22;20508;-70
2022/11/28 10:02:18;;;;;;;20.03;14.47;;;;;;;;;;6281442;22;20226;-70
2022/11/28 10:04:47;;;;;;;17.97;14.30;;;;;;;;;;6308863;22;20140;-72
2022/11/28 10:07:16;;;;;;;21.97;14.83;;;;;;;;;;6308964;22;20170;-71
2022/11/28 10:09:48;;;;;;;22.90;15.10;;;;;;;;;;6308809;22;20202;-71
2022/11/28 10:12:23;;;;;;;20.20;15.87;;;;;;;;;;6308669;22;20634;-73
2022/11/28 10:14:52;;;;;;;18.07;14.97;;;;;;;;;;6281470;22;20225;-72
2022/11/28 10:17:29;;;;;;;19.83;14.87;;;;;;;;;;6281964;22;20240;-72
2022/11/28 10:20:03;;;;;;;21.40;14.53;;;;;;;;;;6308731;22;20141;-72
2022/11/28 10:22:42;;;;;;;20.30;15.83;;;;;;;;;;6308585;22;20163;-70
2022/11/28 10:25:28;;;;;;;21.50;15.13;;;;;;;;;;6308831;22;20227;-72
2022/11/28 10:27:55;;;;;;;20.13;15.87;;;;;;;;;;6308901;22;20583;-72
2022/11/28 10:30:23;;;;;;;18.63;14.67;;;;;;;;;;6308630;22;20230;-71
2022/11/28 10:33:01;;;;;;;19.13;15.63;;;;;;;;;;6308750;22;20169;-72
2022/11/28 10:35:41;;;;;;;23.10;16.57;;;;;;;;;;6308634;22;20151;-72
2022/11/28 10:38:12;;;;;;;23.63;18.50;;;;;;;;;;6308651;22;20144;-72
2022/11/28 10:40:44;;;;;;;32.07;21.47;;;;;;;;;;6280969;22;20206;-71
2022/11/28 10:43:09;;;;;;;31.97;24.33;;;;;;;;;;6309119;22;20153;-71
2022/11/28 10:45:44;;;;;;;38.67;25.87;;;;;;;;;;6308798;22;20152;-72
2022/11/28 10:48:13;;;;;;;33.70;24.60;;;;;;;;;;6281482;22;20144;-72
2022/11/28 10:50:45;;;;;;;41.20;27.20;;;;;;;;;;6281505;22;20161;-72
2022/11/28 10:53:20;;;;;;;39.47;25.70;;;;;;;;;;6308424;22;20179;-72
2022/11/28 10:56:02;;;;;;;47.67;25.80;;;;;;;;;;6308657;22;20226;-72
2022/11/28 10:58:37;;;;;;;43.30;26.93;;;;;;;;;;6280947;22;20155;-71
2022/11/28 11:01:03;;;;;;;48.07;27.90;;;;;;;;;;6280841;22;20226;-71
2022/11/28 11:03:32;;;;;;;44.87;27.03;;;;;;;;;;6308594;22;20616;-72
2022/11/28 11:05:59;;;;;;;47.20;26.57;;;;;;;;;;6280824;22;20160;-71
2022/11/28 11:08:29;;;;;;;43.77;25.20;;;;;;;;;;6282099;22;20157;-73
2022/11/28 11:11:14;;;;;;;37.83;24.20;;;;;;;;;;6308159;22;20314;-71
2022/11/28 11:13:59;;;;;;;35.30;22.33;;;;;;;;;;6280787;22;20206;-72
2022/11/28 11:16:25;;;;;;;30.77;19.73;;;;;;;;;;6281046;22;20159;-73
2022/11/28 11:18:52;;;;;;;29.90;19.53;;;;;;;;;;6280881;22;20149;-72
2022/11/28 11:21:20;;;;;;;29.67;18.80;;;;;;;;;;6281055;22;20679;-71
2022/11/28 11:23:47;;;;;;;27.20;19.00;;;;;;;;;;6280892;22;20184;-73
2022/11/28 11:26:20;;;;;;;27.13;18.43;;;;;;;;;;6308304;22;20152;-73
2022/11/28 11:28:49;;;;;;;28.03;18.37;;;;;;;;;;6308460;22;20144;-73
2022/11/28 11:31:20;;;;;;;24.23;18.60;;;;;;;;;;6281090;22;20263;-72
2022/11/28 11:33:47;;;;;;;27.07;20.10;;;;;;;;;;6281180;22;20222;-72
2022/11/28 11:36:23;;;;;;;27.57;20.80;;;;;;;;;;6308581;22;20149;-71
2022/11/28 11:38:49;;;;;;;24.57;20.33;;;;;;;;;;6308545;22;20132;-72
2022/11/28 11:41:34;;;;;;;28.47;20.70;;;;;;;;;;6280554;22;20229;-71
2022/11/28 11:44:15;;;;;;;24.73;20.07;;;;;;;;;;6280537;22;20145;-72
2022/11/28 11:46:55;;;;;;;26.97;20.03;;;;;;;;;;6308065;22;20149;-72
2022/11/28 11:49:30;;;;;;;29.40;20.07;;;;;;;;;;6280278;22;20160;-71
2022/11/28 11:51:56;;;;;;;25.57;20.17;;;;;;;;;;6308345;22;20626;-71
2022/11/28 11:54:22;;;;;;;24.13;19.33;;;;;;;;;;6307724;22;20259;-72
2022/11/28 11:56:49;;;;;;;29.83;18.70;;;;;;;;;;6308000;22;20226;-72
2022/11/28 11:59:18;;;;;;;27.83;20.23;;;;;;;;;;6308601;22;20205;-71
2022/11/28 12:01:45;;;;;;;28.17;20.23;;;;;;;;;;6280654;22;20169;-70
2022/11/28 12:04:17;;;;;;;24.57;19.67;;;;;;;;;;6280540;22;20153;-71
2022/11/28 12:06:47;;;;;;;24.63;19.37;;;;;;;;;;6307666;22;20148;-71
2022/11/28 12:09:27;;;;;;;23.30;18.60;;;;;;;;;;6308220;22;20195;-72
2022/11/28 12:11:56;;;;;;;26.97;20.50;;;;;;;;;;6309077;22;20542;-71
2022/11/28 12:14:28;;;;;;;24.37;19.80;;;;;;;;;;6309520;22;20623;-72
2022/11/28 12:17:03;;;;;;;29.03;20.50;;;;;;;;;;6309789;22;20156;-72
2022/11/28 12:19:29;;;;;;;30.17;22.87;;;;;;;;;;6309508;22;20140;-72
2022/11/28 12:22:03;;;;;;;27.00;20.73;;;;;;;;;;6309913;22;20161;-72
2022/11/28 12:24:38;;;;;;;30.07;22.70;;;;;;;;;;6309908;22;20144;-72
2022/11/28 12:27:06;;;;;;;25.97;19.73;;;;;;;;;;6281868;22;20144;-71
2022/11/28 12:29:32;;;;;;;29.00;19.13;;;;;;;;;;6309613;22;20174;-71
2022/11/28 12:32:13;;;;;;;26.33;20.53;;;;;;;;;;6309579;22;20226;-71
2022/11/28 12:34:57;;;;;;;27.90;20.60;;;;;;;;;;6282055;22;20200;-71
2022/11/28 12:37:31;;;;;;;34.10;21.53;;;;;;;;;;6309700;22;20147;-72
2022/11/28 12:40:05;;;;;;;26.97;20.93;;;;;;;;;;6281866;22;20144;-71
2022/11/28 12:42:51;;;;;;;27.10;20.17;;;;;;;;;;6309324;22;20168;-71
2022/11/28 12:45:23;;;;;;;27.83;21.70;;;;;;;;;;6309904;22;20624;-71
2022/11/28 12:48:05;;;;;;;24.63;20.70;;;;;;;;;;6283435;22;20165;-72
2022/11/28 12:50:38;;;;;;;28.17;21.17;;;;;;;;;;6310926;22;20282;-71
2022/11/28 12:53:16;;;;;;;27.70;19.67;;;;;;;;;;6283285;22;20182;-71
2022/11/28 12:56:03;;;;;;;32.93;22.40;;;;;;;;;;6311126;22;20613;-73
2022/11/28 12:58:58;;;;;;;29.27;22.07;;;;;;;;;;6284650;22;20156;-72
2022/11/28 13:01:29;;;;;;;31.80;22.63;;;;;;;;;;6286293;22;20172;-71
2022/11/28 13:03:55;;;;;;;28.87;22.47;;;;;;;;;;6311684;22;20235;-71
2022/11/28 13:06:30;;;;;;;27.73;21.03;;;;;;;;;;6285271;22;20157;-71
2022/11/28 13:09:02;;;;;;;29.90;21.03;;;;;;;;;;6311922;22;20153;-71
2022/11/28 13:11:47;;;;;;;27.10;20.50;;;;;;;;;;6311315;22;20195;-71
2022/11/28 13:14:15;;;;;;;30.07;22.20;;;;;;;;;;6310482;22;20512;-72
2022/11/28 13:16:41;;;;;;;29.40;22.33;;;;;;;;;;6310559;22;20500;-72
2022/11/28 13:19:11;;;;;;;28.83;21.33;;;;;;;;;;6282819;22;20210;-71
2022/11/28 13:21:42;;;;;;;31.30;23.00;;;;;;;;;;6310195;22;20172;-71
2022/11/28 13:24:27;;;;;;;28.90;22.33;;;;;;;;;;6283284;22;20171;-72
2022/11/28 13:26:57;;;;;;;31.17;23.70;;;;;;;;;;6282489;22;20163;-72
2022/11/28 13:29:31;;;;;;;27.60;23.03;;;;;;;;;;6310321;22;20589;-72
2022/11/28 13:32:00;;;;;;;28.10;21.23;;;;;;;;;;6310239;22;20495;-72
2022/11/28 13:34:28;;;;;;;25.40;21.00;;;;;;;;;;6283275;22;20634;-72
2022/11/28 13:37:15;;;;;;;26.40;20.17;;;;;;;;;;6309975;22;20549;-71
2022/11/28 13:39:47;;;;;;;27.97;19.77;;;;;;;;;;6310089;22;20155;-72
2022/11/28 13:42:22;;;;;;;27.80;20.67;;;;;;;;;;6309546;22;20164;-73
2022/11/28 13:45:07;;;;;;;30.87;20.63;;;;;;;;;;6309606;22;20141;-72
2022/11/28 13:47:36;;;;;;;27.07;21.13;;;;;;;;;;6309547;22;20496;-71
2022/11/28 13:50:24;;;;;;;31.87;22.43;;;;;;;;;;6309876;22;20152;-72
2022/11/28 13:53:00;;;;;;;27.10;21.53;;;;;;;;;;6282997;22;20512;-72
2022/11/28 13:55:35;;;;;;;24.70;20.30;;;;;;;;;;6309479;22;20149;-72
2022/11/28 13:58:21;;;;;;;27.67;22.37;;;;;;;;;;6309529;22;20251;-72
2022/11/28 14:01:08;;;;;;;34.80;23.20;;;;;;;;;;6281743;22;20237;-71
2022/11/28 14:03:35;;;;;;;28.17;23.20;;;;;;;;;;6309828;22;20225;-71
2022/11/28 14:06:03;;;;;;;28.60;23.57;;;;;;;;;;6281961;22;20611;-71
2022/11/28 14:08:37;;;;;;;27.63;23.13;;;;;;;;;;6281838;22;20538;-70
2022/11/28 14:11:22;;;;;;;31.40;22.37;;;;;;;;;;6308731;22;20208;-69
2022/11/28 14:13:51;;;;;;;31.27;23.90;;;;;;;;;;6308714;22;20228;-71
2022/11/28 14:16:26;;;;;;;30.00;22.63;;;;;;;;;;6281852;22;20156;-70
2022/11/28 14:18:58;;;;;;;27.73;21.87;;;;;;;;;;6309017;22;20151;-71
2022/11/28 14:21:39;;;;;;;25.23;21.07;;;;;;;;;;6309139;22;20168;-71
2022/11/28 14:24:14;;;;;;;24.23;21.50;;;;;;;;;;6309158;22;20152;-71
2022/11/28 14:26:41;;;;;;;26.43;21.60;;;;;;;;;;6309174;22;20141;-71
2022/11/28 14:29:18;;;;;;;27.63;21.60;;;;;;;;;;6308770;22;20534;-71
2022/11/28 14:31:45;;;;;;;29.20;22.70;;;;;;;;;;6310668;22;20694;-70
2022/11/28 14:34:30;;;;;;;32.97;23.63;;;;;;;;;;6310618;22;20225;-69
2022/11/28 14:37:14;;;;;;;28.73;23.00;;;;;;;;;;6283035;22;20227;-71